createdAt,value
2018-12-14T00:00:42.800Z,26.99
2018-12-14T00:03:11.453Z,26.94
2018-12-14T00:05:40.104Z,26.67
2018-12-14T00:08:08.715Z,26.56
2018-12-14T00:10:37.330Z,26.61
2018-12-14T00:13:06.015Z,26.33
2018-12-14T00:15:34.655Z,26.32
2018-12-14T00:18:04.150Z,26.21
2018-12-14T00:20:32.766Z,26.19
2018-12-14T00:23:01.424Z,26.43
2018-12-14T00:25:30.048Z,26.21
2018-12-14T00:27:58.727Z,26.22
2018-12-14T00:30:27.378Z,26.72
2018-12-14T00:32:56.071Z,25.66
2018-12-14T00:40:20.223Z,26.17
2018-12-14T00:42:48.904Z,26.59
2018-12-14T00:45:17.525Z,26.08
2018-12-14T00:47:46.269Z,26.54
2018-12-14T00:50:14.918Z,26.44
2018-12-14T00:52:43.641Z,26.49
2018-12-14T00:55:12.294Z,26.17
2018-12-14T00:57:40.886Z,25.99
2018-12-14T01:00:11.754Z,26.51
2018-12-14T01:02:40.353Z,26.58
2018-12-14T01:05:09.149Z,25.85
2018-12-14T01:07:37.775Z,25.82
2018-12-14T01:10:06.927Z,26.44
2018-12-14T01:12:35.608Z,25.97
2018-12-14T01:15:04.634Z,25.84
2018-12-14T01:17:33.297Z,26.45
2018-12-14T01:20:01.944Z,26.37
2018-12-14T01:22:30.607Z,25.86
2018-12-14T01:24:59.265Z,25.95
2018-12-14T01:27:27.860Z,25.92
2018-12-14T01:29:56.460Z,26.31
2018-12-14T01:32:25.115Z,26.11
2018-12-14T01:34:53.754Z,26.31
2018-12-14T01:37:22.384Z,25.84
2018-12-14T01:39:51.028Z,25.71
2018-12-14T01:42:19.667Z,25.98
2018-12-14T01:44:48.266Z,25.84
2018-12-14T01:47:17.062Z,26.33
2018-12-14T01:49:45.694Z,26.25
2018-12-14T01:52:14.345Z,26.33
2018-12-14T01:54:42.988Z,25.69
2018-12-14T01:57:11.688Z,26.22
2018-12-14T01:59:40.305Z,26.23
2018-12-14T02:02:08.907Z,25.66
2018-12-14T02:04:37.515Z,26.32
2018-12-14T02:07:06.192Z,25.85
2018-12-14T02:09:34.808Z,26.16
2018-12-14T02:12:03.435Z,25.80
2018-12-14T02:14:32.100Z,25.68
2018-12-14T02:17:00.778Z,26.13
2018-12-14T02:19:29.425Z,25.67
2018-12-14T02:21:58.145Z,26.12
2018-12-14T02:24:26.754Z,26.23
2018-12-14T02:26:55.408Z,25.57
2018-12-14T02:29:24.055Z,26.16
2018-12-14T02:31:52.789Z,25.62
2018-12-14T02:34:21.461Z,25.55
2018-12-14T02:36:50.227Z,25.91
2018-12-14T02:39:18.920Z,26.14
2018-12-14T02:41:47.590Z,26.06
2018-12-14T02:44:16.263Z,26.13
2018-12-14T02:46:44.934Z,25.81
2018-12-14T02:49:13.628Z,25.55
2018-12-14T02:51:42.379Z,25.75
2018-12-14T02:54:11.053Z,25.57
2018-12-14T02:56:39.815Z,25.62
2018-12-14T02:59:08.483Z,26.12
2018-12-14T03:01:37.179Z,26.16
2018-12-14T03:04:05.808Z,26.19
2018-12-14T03:06:34.455Z,25.57
2018-12-14T03:09:03.244Z,25.95
2018-12-14T03:11:31.967Z,26.36
2018-12-14T03:14:00.628Z,26.08
2018-12-14T03:16:29.371Z,26.14
2018-12-14T03:18:58.049Z,26.14
2018-12-14T03:21:26.694Z,26.15
2018-12-14T03:23:55.403Z,26.08
2018-12-14T03:26:24.050Z,26.14
2018-12-14T03:28:52.656Z,25.55
2018-12-14T03:31:21.325Z,25.62
2018-12-14T03:33:49.961Z,26.11
2018-12-14T03:36:18.577Z,25.66
2018-12-14T03:38:47.183Z,25.81
2018-12-14T03:41:15.964Z,25.58
2018-12-14T03:43:44.624Z,25.90
2018-12-14T03:46:13.241Z,26.21
2018-12-14T03:48:41.916Z,25.83
2018-12-14T03:51:10.542Z,25.53
2018-12-14T03:53:39.262Z,26.15
2018-12-14T03:56:07.901Z,26.18
2018-12-14T03:58:36.488Z,25.93
2018-12-14T04:01:05.295Z,26.16
2018-12-14T04:03:33.989Z,25.98
2018-12-14T04:06:02.662Z,25.64
2018-12-14T04:08:31.313Z,26.02
2018-12-14T04:10:59.925Z,25.83
2018-12-14T04:13:28.553Z,25.87
2018-12-14T04:15:57.184Z,25.92
2018-12-14T04:18:25.833Z,25.91
2018-12-14T04:20:54.400Z,26.02
2018-12-14T04:23:23.095Z,26.17
2018-12-14T04:25:51.652Z,25.76
2018-12-14T04:28:20.244Z,25.75
2018-12-14T04:30:48.892Z,26.11
2018-12-14T04:33:17.798Z,26.07
2018-12-14T04:35:46.514Z,26.15
2018-12-14T04:38:15.203Z,25.57
2018-12-14T04:40:43.821Z,25.74
2018-12-14T04:43:12.533Z,26.06
2018-12-14T04:45:41.209Z,26.04
2018-12-14T04:48:09.836Z,25.96
2018-12-14T04:50:38.462Z,26.06
2018-12-14T04:53:07.096Z,25.59
2018-12-14T04:55:35.695Z,26.09
2018-12-14T04:58:04.485Z,25.50
2018-12-14T05:00:33.140Z,25.56
2018-12-14T05:03:01.759Z,25.87
2018-12-14T05:05:30.628Z,25.47
2018-12-14T05:07:59.244Z,25.52
2018-12-14T05:10:27.843Z,25.55
2018-12-14T05:12:56.537Z,25.93
2018-12-14T05:15:25.151Z,25.87
2018-12-14T05:17:53.755Z,26.20
2018-12-14T05:20:22.408Z,25.74
2018-12-14T05:22:50.995Z,25.94
2018-12-14T05:25:19.824Z,26.02
2018-12-14T05:27:48.458Z,26.07
2018-12-14T05:30:17.241Z,25.60
2018-12-14T05:32:45.914Z,25.93
2018-12-14T05:35:14.667Z,25.63
2018-12-14T05:37:43.286Z,25.93
2018-12-14T05:40:12.033Z,25.36
2018-12-14T05:42:40.652Z,25.98
2018-12-14T05:45:09.287Z,25.61
2018-12-14T05:47:38.065Z,25.70
2018-12-14T05:50:07.530Z,25.43
2018-12-14T05:52:36.141Z,25.91
2018-12-14T05:55:05.513Z,25.48
2018-12-14T05:57:34.167Z,25.98
2018-12-14T06:00:02.994Z,25.53
2018-12-14T06:02:31.645Z,25.40
2018-12-14T06:05:00.260Z,25.66
2018-12-14T06:07:28.909Z,25.92
2018-12-14T06:09:57.620Z,25.44
2018-12-14T06:12:26.237Z,25.43
2018-12-14T06:14:54.889Z,25.49
2018-12-14T06:17:23.515Z,25.98
2018-12-14T06:19:52.117Z,25.40
2018-12-14T06:22:20.758Z,25.98
2018-12-14T06:24:49.447Z,25.31
2018-12-14T06:27:18.133Z,25.78
2018-12-14T06:29:47.071Z,25.98
2018-12-14T06:32:15.699Z,25.54
2018-12-14T06:34:44.334Z,25.96
2018-12-14T06:37:13.496Z,25.79
2018-12-14T06:39:42.064Z,26.02
2018-12-14T06:42:11.015Z,25.44
2018-12-14T06:44:39.656Z,25.95
2018-12-14T06:47:08.308Z,25.74
2018-12-14T06:49:36.960Z,25.43
2018-12-14T06:52:05.559Z,26.04
2018-12-14T06:54:34.218Z,25.58
2018-12-14T06:57:03.068Z,25.77
2018-12-14T06:59:31.691Z,25.48
2018-12-14T07:02:00.516Z,25.47
2018-12-14T07:04:29.145Z,25.45
2018-12-14T07:07:03.865Z,25.97
2018-12-14T07:09:28.398Z,25.37
2018-12-14T07:11:56.988Z,25.91
2018-12-14T07:14:25.669Z,25.93
2018-12-14T07:16:54.300Z,25.57
2018-12-14T07:19:23.139Z,26.09
2018-12-14T07:21:51.850Z,26.15
2018-12-14T07:24:20.624Z,26.58
2018-12-14T07:26:49.654Z,26.10
2018-12-14T07:29:18.499Z,26.62
2018-12-14T07:31:47.213Z,26.31
2018-12-14T07:34:15.850Z,26.68
2018-12-14T07:36:44.644Z,26.51
2018-12-14T07:39:13.731Z,26.41
2018-12-14T07:41:42.483Z,27.06
2018-12-14T07:44:11.513Z,26.48
2018-12-14T07:46:40.430Z,26.50
2018-12-14T07:49:09.269Z,27.29
2018-12-14T07:51:37.980Z,27.46
2018-12-14T07:54:06.627Z,27.16
2018-12-14T07:56:35.430Z,27.68
2018-12-14T07:59:04.280Z,27.33
2018-12-14T08:01:33.047Z,27.22
2018-12-14T08:04:02.007Z,27.55
2018-12-14T08:06:30.947Z,27.53
2018-12-14T08:08:59.895Z,27.43
2018-12-14T08:11:28.736Z,26.94
2018-12-14T08:13:57.657Z,26.59
2018-12-14T08:16:26.303Z,27.05
2018-12-14T08:18:54.989Z,26.46
2018-12-14T08:21:23.896Z,26.42
2018-12-14T08:23:52.579Z,26.88
2018-12-14T08:26:21.521Z,26.32
2018-12-14T08:28:50.080Z,26.23
2018-12-14T08:31:18.891Z,26.09
2018-12-14T08:33:47.760Z,26.03
2018-12-14T08:38:44.012Z,25.80
2018-12-14T08:41:12.847Z,26.33
2018-12-14T08:43:41.838Z,25.77
2018-12-14T08:46:10.670Z,26.08
2018-12-14T08:48:39.307Z,25.82
2018-12-14T08:51:07.941Z,25.40
2018-12-14T08:53:36.864Z,25.92
2018-12-14T08:56:05.633Z,25.88
2018-12-14T08:58:34.349Z,25.31
2018-12-14T09:01:03.046Z,25.39
2018-12-14T09:03:31.700Z,25.15
2018-12-14T09:06:00.336Z,25.70
2018-12-14T09:08:29.045Z,25.75
2018-12-14T09:10:57.659Z,25.52
2018-12-14T09:13:26.292Z,25.60
2018-12-14T09:15:54.947Z,25.01
2018-12-14T09:18:23.892Z,25.11
2018-12-14T09:20:52.721Z,25.41
2018-12-14T09:23:21.516Z,25.45
2018-12-14T09:25:50.358Z,24.75
2018-12-14T09:28:19.109Z,24.75
2018-12-14T09:30:47.765Z,25.30
2018-12-14T09:33:16.406Z,25.26
2018-12-14T09:35:45.078Z,25.23
2018-12-14T09:38:14.033Z,25.16
2018-12-14T09:40:43.109Z,24.68
2018-12-14T09:43:12.058Z,24.51
2018-12-14T09:45:40.983Z,25.08
2018-12-14T09:48:09.849Z,24.74
2018-12-14T09:50:38.745Z,24.48
2018-12-14T09:53:07.352Z,24.51
2018-12-14T09:55:35.973Z,24.53
2018-12-14T09:58:04.619Z,24.44
2018-12-14T10:00:33.320Z,24.35
2018-12-14T10:03:02.140Z,24.43
2018-12-14T10:05:30.990Z,24.31
2018-12-14T10:07:59.680Z,24.87
2018-12-14T10:10:28.391Z,24.28
2018-12-14T10:12:57.048Z,24.21
2018-12-14T10:15:25.848Z,24.76
2018-12-14T10:17:54.470Z,24.29
2018-12-14T10:20:24.147Z,24.63
2018-12-14T10:22:52.752Z,24.57
2018-12-14T10:25:21.373Z,24.32
2018-12-14T10:27:50.409Z,24.55
2018-12-14T10:30:19.043Z,24.71
2018-12-14T10:32:47.672Z,24.15
2018-12-14T10:35:16.593Z,24.61
2018-12-14T10:37:45.226Z,24.55
2018-12-14T10:40:13.939Z,24.37
2018-12-14T10:42:42.664Z,24.28
2018-12-14T10:45:11.551Z,24.38
2018-12-14T10:47:40.166Z,24.48
2018-12-14T10:50:09.670Z,24.39
2018-12-14T10:55:07.239Z,23.83
2018-12-14T10:57:36.380Z,24.54
2018-12-14T11:00:08.295Z,24.43
2018-12-14T11:05:05.258Z,23.90
2018-12-14T11:07:33.895Z,23.87
2018-12-14T11:10:02.600Z,24.50
2018-12-14T11:12:31.213Z,24.33
2018-12-14T11:15:00.066Z,23.96
2018-12-14T11:19:56.708Z,24.31
2018-12-14T11:24:53.004Z,23.68
2018-12-14T11:27:21.674Z,23.99
2018-12-14T11:32:18.154Z,23.64
2018-12-14T11:34:46.800Z,24.06
2018-12-14T11:37:15.455Z,23.86
2018-12-14T11:39:44.136Z,24.26
2018-12-14T11:42:13.389Z,24.33
2018-12-14T11:44:42.156Z,23.96
2018-12-14T11:47:10.995Z,23.81
2018-12-14T11:49:39.662Z,23.87
2018-12-14T11:52:08.403Z,24.28
2018-12-14T11:54:37.359Z,24.29
2018-12-14T11:57:05.996Z,24.23
2018-12-14T11:59:34.934Z,23.72
2018-12-14T12:02:03.913Z,23.66
2018-12-14T12:04:32.912Z,24.08
2018-12-14T12:07:01.522Z,24.18
2018-12-14T12:09:30.455Z,24.25
2018-12-14T12:11:59.097Z,23.66
2018-12-14T12:14:28.251Z,23.71
2018-12-14T12:16:56.894Z,24.12
2018-12-14T12:19:25.496Z,24.04
2018-12-14T12:21:54.172Z,23.63
2018-12-14T12:24:22.841Z,23.62
2018-12-14T12:26:52.293Z,23.55
2018-12-14T12:29:21.247Z,24.21
2018-12-14T12:31:49.877Z,23.92
2018-12-14T12:34:18.927Z,24.17
2018-12-14T12:36:47.565Z,24.04
2018-12-14T12:39:16.221Z,23.89
2018-12-14T12:41:44.916Z,23.89
2018-12-14T12:44:13.564Z,23.51
2018-12-14T12:46:42.224Z,24.13
2018-12-14T12:49:11.923Z,24.08
2018-12-14T12:51:40.521Z,23.76
2018-12-14T12:54:09.170Z,24.19
2018-12-14T12:56:38.231Z,24.07
2018-12-14T12:59:06.875Z,23.62
2018-12-14T13:01:35.648Z,23.54
2018-12-14T13:04:04.320Z,24.04
2018-12-14T13:06:33.039Z,23.53
2018-12-14T13:09:01.740Z,24.17
2018-12-14T13:11:30.547Z,24.04
2018-12-14T13:13:59.143Z,23.53
2018-12-14T13:16:27.812Z,24.01
2018-12-14T13:18:56.795Z,24.09
2018-12-14T13:21:25.585Z,23.52
2018-12-14T13:23:54.249Z,24.04
2018-12-14T13:26:22.881Z,23.45
2018-12-14T13:28:51.924Z,23.77
2018-12-14T13:31:20.994Z,24.08
2018-12-14T13:33:49.657Z,23.95
2018-12-14T13:36:18.763Z,23.79
2018-12-14T13:38:47.658Z,24.06
2018-12-14T13:41:16.390Z,24.12
2018-12-14T13:43:45.101Z,24.08
2018-12-14T13:46:14.080Z,23.92
2018-12-14T13:48:43.074Z,23.63
2018-12-14T13:51:11.724Z,24.02
2018-12-14T13:53:40.350Z,23.57
2018-12-14T13:56:08.971Z,23.87
2018-12-14T13:58:37.595Z,24.10
2018-12-14T14:01:06.216Z,24.05
2018-12-14T14:03:35.108Z,24.02
2018-12-14T14:06:03.752Z,23.83
2018-12-14T14:08:32.391Z,23.91
2018-12-14T14:11:01.035Z,23.45
2018-12-14T14:13:29.651Z,23.84
2018-12-14T14:15:58.281Z,23.41
2018-12-14T14:18:26.902Z,24.01
2018-12-14T14:20:55.794Z,23.58
2018-12-14T14:23:24.738Z,23.40
2018-12-14T14:25:53.677Z,23.38
2018-12-14T14:28:22.287Z,23.81
2018-12-14T14:30:50.931Z,23.62
2018-12-14T14:33:19.623Z,23.40
2018-12-14T14:35:48.346Z,24.01
2018-12-14T14:38:16.940Z,23.86
2018-12-14T14:40:46.235Z,24.02
2018-12-14T14:43:14.914Z,23.43
2018-12-14T14:45:43.555Z,23.48
2018-12-14T14:48:12.191Z,23.36
2018-12-14T14:50:40.781Z,23.93
2018-12-14T14:53:09.389Z,24.03
2018-12-14T14:55:38.045Z,23.94
2018-12-14T14:58:06.858Z,23.41
2018-12-14T15:00:35.888Z,23.49
2018-12-14T15:03:05.099Z,24.03
2018-12-14T15:05:34.070Z,23.57
2018-12-14T15:08:02.884Z,23.91
2018-12-14T15:10:31.946Z,23.42
2018-12-14T15:13:00.894Z,23.31
2018-12-14T15:15:29.628Z,23.69
2018-12-14T15:17:58.247Z,23.37
2018-12-14T15:20:26.921Z,23.42
2018-12-14T15:22:55.961Z,23.83
2018-12-14T15:25:24.623Z,23.53
2018-12-14T15:27:53.564Z,23.48
2018-12-14T15:30:22.384Z,23.13
2018-12-14T15:32:51.297Z,23.79
2018-12-14T15:35:20.015Z,23.32
2018-12-14T15:37:49.440Z,23.36
2018-12-14T15:40:18.334Z,23.42
2018-12-14T15:42:47.136Z,23.67
2018-12-14T15:45:15.853Z,23.82
2018-12-14T15:47:44.526Z,23.59
2018-12-14T15:50:13.280Z,23.76
2018-12-14T15:52:41.896Z,23.76
2018-12-14T15:55:10.643Z,23.26
2018-12-14T15:57:39.327Z,23.21
2018-12-14T16:00:08.639Z,23.78
2018-12-14T16:02:37.504Z,23.70
2018-12-14T16:05:06.828Z,23.27
2018-12-14T16:07:35.835Z,23.45
2018-12-14T16:10:05.697Z,23.21
2018-12-14T16:12:34.599Z,23.90
2018-12-14T16:15:03.389Z,23.84
2018-12-14T16:17:32.068Z,23.33
2018-12-14T16:20:00.684Z,23.36
2018-12-14T16:22:29.405Z,23.54
2018-12-14T16:24:58.044Z,23.20
2018-12-14T16:27:26.740Z,23.80
2018-12-14T16:29:55.536Z,23.47
2018-12-14T16:32:24.153Z,23.19
2018-12-14T16:34:52.776Z,23.71
2018-12-14T16:37:21.464Z,23.56
2018-12-14T16:39:50.152Z,23.73
2018-12-14T16:42:18.879Z,23.24
2018-12-14T16:44:47.489Z,23.33
2018-12-14T16:47:16.122Z,23.66
2018-12-14T16:49:44.747Z,23.17
2018-12-14T16:52:13.771Z,23.22
2018-12-14T16:54:42.469Z,23.79
2018-12-14T16:57:11.096Z,23.10
2018-12-14T16:59:39.753Z,23.17
2018-12-14T17:02:08.505Z,23.71
2018-12-14T17:04:37.171Z,23.16
2018-12-14T17:07:05.886Z,23.09
2018-12-14T17:09:34.604Z,23.66
2018-12-14T17:12:03.397Z,23.15
2018-12-14T17:14:32.222Z,23.70
2018-12-14T17:17:01.031Z,23.26
2018-12-14T17:19:29.721Z,23.09
2018-12-14T17:21:58.561Z,23.67
2018-12-14T17:24:27.242Z,23.54
2018-12-14T17:26:55.969Z,23.67
2018-12-14T17:29:24.729Z,23.39
2018-12-14T17:31:53.468Z,23.08
2018-12-14T17:34:22.083Z,23.05
2018-12-14T17:36:50.735Z,23.59
2018-12-14T17:39:19.548Z,23.11
2018-12-14T17:41:48.216Z,23.52
2018-12-14T17:44:16.978Z,23.02
2018-12-14T17:46:46.246Z,23.52
2018-12-14T17:49:15.084Z,23.37
2018-12-14T17:51:43.909Z,23.08
2018-12-14T17:54:12.922Z,23.17
2018-12-14T17:56:41.554Z,22.97
2018-12-14T17:59:10.177Z,23.09
2018-12-14T18:01:39.125Z,23.61
2018-12-14T18:04:07.757Z,23.03
2018-12-14T18:06:36.569Z,23.55
2018-12-14T18:09:05.797Z,23.51
2018-12-14T18:11:34.445Z,22.95
2018-12-14T18:14:03.791Z,23.16
2018-12-14T18:16:32.737Z,23.02
2018-12-14T18:19:02.301Z,22.96
2018-12-14T18:21:31.020Z,22.99
2018-12-14T18:23:59.688Z,23.53
2018-12-14T18:26:28.662Z,23.05
2018-12-14T18:28:57.654Z,23.51
2018-12-14T18:31:26.370Z,23.50
2018-12-14T18:33:55.051Z,23.02
2018-12-14T18:36:23.802Z,23.50
2018-12-14T18:38:52.416Z,23.46
2018-12-14T18:41:21.302Z,23.59
2018-12-14T18:43:50.023Z,23.52
2018-12-14T18:46:19.009Z,23.57
2018-12-14T18:48:47.657Z,23.49
2018-12-14T18:51:16.378Z,23.40
2018-12-14T18:53:49.712Z,22.93
2018-12-14T18:56:18.640Z,23.19
2018-12-14T18:58:47.619Z,23.49
2018-12-14T19:01:16.678Z,22.82
2018-12-14T19:03:45.582Z,23.24
2018-12-14T19:06:14.530Z,23.46
2018-12-14T19:08:43.596Z,22.92
2018-12-14T19:11:12.273Z,23.54
2018-12-14T19:13:41.751Z,22.93
2018-12-14T19:16:10.460Z,22.92
2018-12-14T19:18:39.099Z,23.44
2018-12-14T19:21:08.777Z,23.38
2018-12-14T19:23:38.562Z,23.45
2018-12-14T19:26:07.495Z,23.48
2018-12-14T19:28:36.188Z,22.90
2018-12-14T19:31:04.894Z,23.40
2018-12-14T19:33:33.535Z,22.89
2018-12-14T19:36:02.518Z,22.97
2018-12-14T19:38:31.283Z,22.88
2018-12-14T19:41:00.274Z,23.45
2018-12-14T19:43:28.948Z,22.85
2018-12-14T19:45:57.895Z,22.98
2018-12-14T19:48:26.953Z,23.48
2018-12-14T19:50:55.582Z,23.39
2018-12-14T19:53:24.276Z,23.30
2018-12-14T19:55:52.996Z,22.86
2018-12-14T19:58:21.611Z,23.35
2018-12-14T20:00:50.238Z,23.18
2018-12-14T20:03:18.925Z,23.37
2018-12-14T20:05:47.625Z,22.87
2018-12-14T20:08:16.270Z,23.40
2018-12-14T20:10:45.187Z,23.23
2018-12-14T20:13:14.184Z,23.01
2018-12-14T20:15:43.043Z,23.25
2018-12-14T20:18:11.727Z,22.81
2018-12-14T20:20:40.456Z,22.77
2018-12-14T20:23:09.136Z,22.86
2018-12-14T20:25:38.010Z,22.79
2018-12-14T20:28:07.238Z,22.74
2018-12-14T20:30:35.948Z,22.79
2018-12-14T20:33:05.363Z,23.09
2018-12-14T20:35:35.191Z,23.20
2018-12-14T20:38:04.347Z,23.20
2018-12-14T20:40:33.137Z,23.20
2018-12-14T20:43:03.194Z,22.76
2018-12-14T20:45:31.959Z,22.60
2018-12-14T20:48:00.849Z,22.64
2018-12-14T20:50:29.665Z,22.74
2018-12-14T20:52:58.558Z,22.72
2018-12-14T20:55:27.313Z,22.97
2018-12-14T20:57:56.060Z,22.56
2018-12-14T21:00:24.925Z,23.19
2018-12-14T21:02:53.612Z,23.07
2018-12-14T21:05:22.710Z,23.10
2018-12-14T21:07:51.412Z,22.58
2018-12-14T21:10:20.149Z,23.02
2018-12-14T21:12:48.905Z,22.76
2018-12-14T21:15:17.600Z,23.10
2018-12-14T21:17:46.299Z,23.00
2018-12-14T21:20:14.992Z,22.45
2018-12-14T21:22:43.677Z,22.45
2018-12-14T21:25:12.628Z,22.42
2018-12-14T21:27:41.691Z,22.42
2018-12-14T21:30:11.014Z,22.83
2018-12-14T21:32:39.750Z,22.37
2018-12-14T21:35:08.725Z,22.62
2018-12-14T21:37:37.448Z,22.95
2018-12-14T21:40:07.716Z,22.78
2018-12-14T21:42:36.793Z,22.93
2018-12-14T21:45:06.538Z,22.38
2018-12-14T21:47:35.282Z,22.88
2018-12-14T21:50:04.812Z,23.01
2018-12-14T21:52:33.507Z,22.55
2018-12-14T21:55:02.189Z,23.29
2018-12-14T21:57:31.335Z,23.41
2018-12-14T22:00:00.037Z,23.18
2018-12-14T22:02:28.795Z,23.62
2018-12-14T22:04:57.462Z,23.36
2018-12-14T22:07:26.245Z,23.91
2018-12-14T22:09:55.023Z,23.78
2018-12-14T22:12:23.766Z,23.91
2018-12-14T22:14:52.502Z,24.08
2018-12-14T22:17:21.221Z,24.09
2018-12-14T22:19:50.069Z,23.51
2018-12-14T22:22:18.921Z,23.90
2018-12-14T22:24:47.710Z,24.16
2018-12-14T22:27:16.470Z,23.77
2018-12-14T22:29:45.233Z,24.10
2018-12-14T22:32:13.950Z,23.98
2018-12-14T22:34:42.771Z,23.54
2018-12-14T22:37:11.520Z,23.67
2018-12-14T22:39:40.738Z,23.67
2018-12-14T22:42:09.719Z,23.70
2018-12-14T22:44:38.473Z,24.08
2018-12-14T22:47:08.510Z,23.70
2018-12-14T22:49:37.245Z,23.73
2018-12-14T22:52:05.927Z,24.14
2018-12-14T22:54:34.745Z,24.28
2018-12-14T22:57:03.494Z,23.73
2018-12-14T22:59:32.641Z,24.03
2018-12-14T23:02:02.156Z,24.40
2018-12-14T23:04:30.980Z,24.39
2018-12-14T23:06:59.802Z,24.00
2018-12-14T23:09:28.494Z,23.88
2018-12-14T23:11:57.192Z,23.96
2018-12-14T23:14:25.817Z,23.97
2018-12-14T23:16:54.464Z,24.36
2018-12-14T23:19:23.211Z,23.98
2018-12-14T23:21:53.179Z,23.87
2018-12-14T23:24:22.234Z,24.33
2018-12-14T23:26:50.899Z,23.86
2018-12-14T23:29:19.595Z,23.82
2018-12-14T23:31:48.257Z,23.89
2018-12-14T23:34:17.163Z,24.04
2018-12-14T23:36:45.855Z,23.58
2018-12-14T23:39:14.649Z,23.63
2018-12-14T23:41:43.291Z,24.15
2018-12-14T23:44:12.011Z,23.95
2018-12-14T23:46:40.616Z,24.22
2018-12-14T23:49:09.255Z,23.65
2018-12-14T23:51:38.352Z,24.12
2018-12-14T23:54:07.028Z,24.05
2018-12-14T23:56:35.859Z,23.45
2018-12-14T23:59:04.669Z,24.07
